sensor_id;sensor_type;location;lat;lon;timestamp;P1;durP1;ratioP1;P2;durP2;ratioP2
54977;SDS011;40873;47.522;19.106;2022-11-20T00:01:16;24.98;;;9.27;;
54977;SDS011;40873;47.522;19.106;2022-11-20T00:03:48;24.35;;;11.43;;
54977;SDS011;40873;47.522;19.106;2022-11-20T00:06:17;27.80;;;10.05;;
54977;SDS011;40873;47.522;19.106;2022-11-20T00:08:46;23.00;;;9.52;;
54977;SDS011;40873;47.522;19.106;2022-11-20T00:11:20;32.70;;;11.20;;
54977;SDS011;40873;47.522;19.106;2022-11-20T00:13:53;27.92;;;10.85;;
54977;SDS011;40873;47.522;19.106;2022-11-20T00:16:22;24.85;;;9.82;;
54977;SDS011;40873;47.522;19.106;2022-11-20T00:18:50;21.95;;;9.15;;
54977;SDS011;40873;47.522;19.106;2022-11-20T00:21:19;26.75;;;9.68;;
54977;SDS011;40873;47.522;19.106;2022-11-20T00:23:51;19.15;;;8.35;;
54977;SDS011;40873;47.522;19.106;2022-11-20T00:26:21;26.98;;;9.77;;
54977;SDS011;40873;47.522;19.106;2022-11-20T00:28:50;26.27;;;9.60;;
54977;SDS011;40873;47.522;19.106;2022-11-20T00:31:18;31.92;;;10.15;;
54977;SDS011;40873;47.522;19.106;2022-11-20T00:33:45;21.48;;;8.68;;
54977;SDS011;40873;47.522;19.106;2022-11-20T00:36:14;26.10;;;10.30;;
54977;SDS011;40873;47.522;19.106;2022-11-20T00:38:45;24.35;;;10.40;;
54977;SDS011;40873;47.522;19.106;2022-11-20T00:41:14;24.15;;;8.50;;
54977;SDS011;40873;47.522;19.106;2022-11-20T00:43:42;26.48;;;9.45;;
54977;SDS011;40873;47.522;19.106;2022-11-20T00:46:10;26.75;;;9.75;;
54977;SDS011;40873;47.522;19.106;2022-11-20T00:48:40;23.75;;;8.63;;
54977;SDS011;40873;47.522;19.106;2022-11-20T00:51:07;25.40;;;10.50;;
54977;SDS011;40873;47.522;19.106;2022-11-20T00:53:34;26.58;;;10.00;;
54977;SDS011;40873;47.522;19.106;2022-11-20T00:56:05;24.77;;;10.55;;
54977;SDS011;40873;47.522;19.106;2022-11-20T00:58:34;27.83;;;11.15;;
54977;SDS011;40873;47.522;19.106;2022-11-20T01:03:36;25.52;;;9.93;;
54977;SDS011;40873;47.522;19.106;2022-11-20T01:06:06;23.20;;;10.88;;
54977;SDS011;40873;47.522;19.106;2022-11-20T01:08:35;28.77;;;11.18;;
54977;SDS011;40873;47.522;19.106;2022-11-20T01:11:04;26.75;;;11.10;;
54977;SDS011;40873;47.522;19.106;2022-11-20T01:13:34;27.90;;;11.85;;
54977;SDS011;40873;47.522;19.106;2022-11-20T01:16:09;28.60;;;11.60;;
54977;SDS011;40873;47.522;19.106;2022-11-20T01:18:38;28.52;;;10.95;;
54977;SDS011;40873;47.522;19.106;2022-11-20T01:21:08;27.70;;;11.27;;
54977;SDS011;40873;47.522;19.106;2022-11-20T01:23:46;26.52;;;10.90;;
54977;SDS011;40873;47.522;19.106;2022-11-20T01:26:16;26.48;;;11.10;;
54977;SDS011;40873;47.522;19.106;2022-11-20T01:28:44;31.83;;;11.48;;
54977;SDS011;40873;47.522;19.106;2022-11-20T01:33:44;30.55;;;11.48;;
54977;SDS011;40873;47.522;19.106;2022-11-20T01:36:13;28.90;;;10.70;;
54977;SDS011;40873;47.522;19.106;2022-11-20T01:38:40;34.00;;;12.75;;
54977;SDS011;40873;47.522;19.106;2022-11-20T01:41:08;32.13;;;10.63;;
54977;SDS011;40873;47.522;19.106;2022-11-20T01:43:37;26.35;;;10.30;;
54977;SDS011;40873;47.522;19.106;2022-11-20T01:46:14;29.92;;;11.75;;
54977;SDS011;40873;47.522;19.106;2022-11-20T01:51:26;30.45;;;11.57;;
54977;SDS011;40873;47.522;19.106;2022-11-20T01:54:03;38.30;;;13.57;;
54977;SDS011;40873;47.522;19.106;2022-11-20T01:56:38;36.10;;;13.70;;
54977;SDS011;40873;47.522;19.106;2022-11-20T01:59:09;31.23;;;12.80;;
54977;SDS011;40873;47.522;19.106;2022-11-20T02:01:40;36.53;;;12.48;;
54977;SDS011;40873;47.522;19.106;2022-11-20T02:04:07;33.92;;;11.07;;
54977;SDS011;40873;47.522;19.106;2022-11-20T02:06:40;30.15;;;11.63;;
54977;SDS011;40873;47.522;19.106;2022-11-20T02:09:10;33.95;;;11.98;;
54977;SDS011;40873;47.522;19.106;2022-11-20T02:11:38;37.17;;;13.45;;
54977;SDS011;40873;47.522;19.106;2022-11-20T02:14:05;35.60;;;14.48;;
54977;SDS011;40873;47.522;19.106;2022-11-20T02:16:37;37.40;;;13.38;;
54977;SDS011;40873;47.522;19.106;2022-11-20T02:19:07;32.13;;;13.73;;
54977;SDS011;40873;47.522;19.106;2022-11-20T02:22:36;34.70;;;12.68;;
54977;SDS011;40873;47.522;19.106;2022-11-20T02:25:11;31.85;;;11.45;;
54977;SDS011;40873;47.522;19.106;2022-11-20T02:27:39;32.22;;;13.38;;
54977;SDS011;40873;47.522;19.106;2022-11-20T02:30:06;36.25;;;12.90;;
54977;SDS011;40873;47.522;19.106;2022-11-20T02:32:35;36.22;;;12.85;;
54977;SDS011;40873;47.522;19.106;2022-11-20T02:37:44;35.75;;;13.30;;
54977;SDS011;40873;47.522;19.106;2022-11-20T02:40:14;33.28;;;13.35;;
54977;SDS011;40873;47.522;19.106;2022-11-20T02:42:41;31.25;;;12.27;;
54977;SDS011;40873;47.522;19.106;2022-11-20T02:45:08;33.90;;;14.38;;
54977;SDS011;40873;47.522;19.106;2022-11-20T02:47:36;37.03;;;13.00;;
54977;SDS011;40873;47.522;19.106;2022-11-20T02:50:03;34.70;;;13.73;;
54977;SDS011;40873;47.522;19.106;2022-11-20T02:52:31;31.50;;;12.48;;
54977;SDS011;40873;47.522;19.106;2022-11-20T02:54:58;36.58;;;12.23;;
54977;SDS011;40873;47.522;19.106;2022-11-20T02:57:25;30.25;;;11.05;;
54977;SDS011;40873;47.522;19.106;2022-11-20T02:59:52;31.60;;;11.77;;
54977;SDS011;40873;47.522;19.106;2022-11-20T03:02:19;29.50;;;12.63;;
54977;SDS011;40873;47.522;19.106;2022-11-20T03:04:46;31.40;;;11.55;;
54977;SDS011;40873;47.522;19.106;2022-11-20T03:07:14;35.00;;;11.43;;
54977;SDS011;40873;47.522;19.106;2022-11-20T03:09:40;28.48;;;11.35;;
54977;SDS011;40873;47.522;19.106;2022-11-20T03:12:07;34.30;;;11.98;;
54977;SDS011;40873;47.522;19.106;2022-11-20T03:14:35;26.63;;;11.50;;
54977;SDS011;40873;47.522;19.106;2022-11-20T03:17:02;29.17;;;12.05;;
54977;SDS011;40873;47.522;19.106;2022-11-20T03:19:28;32.85;;;12.15;;
54977;SDS011;40873;47.522;19.106;2022-11-20T03:21:56;29.63;;;10.93;;
54977;SDS011;40873;47.522;19.106;2022-11-20T03:24:22;33.60;;;11.05;;
54977;SDS011;40873;47.522;19.106;2022-11-20T03:26:49;29.48;;;11.23;;
54977;SDS011;40873;47.522;19.106;2022-11-20T03:29:16;28.65;;;11.50;;
54977;SDS011;40873;47.522;19.106;2022-11-20T03:31:43;25.63;;;10.82;;
54977;SDS011;40873;47.522;19.106;2022-11-20T03:34:11;28.70;;;10.77;;
54977;SDS011;40873;47.522;19.106;2022-11-20T03:36:39;30.50;;;11.43;;
54977;SDS011;40873;47.522;19.106;2022-11-20T03:39:07;32.10;;;11.95;;
54977;SDS011;40873;47.522;19.106;2022-11-20T03:41:38;24.88;;;11.13;;
54977;SDS011;40873;47.522;19.106;2022-11-20T03:44:07;31.38;;;10.98;;
54977;SDS011;40873;47.522;19.106;2022-11-20T03:46:36;35.85;;;13.00;;
54977;SDS011;40873;47.522;19.106;2022-11-20T03:49:03;28.35;;;11.30;;
54977;SDS011;40873;47.522;19.106;2022-11-20T03:51:31;30.73;;;12.65;;
54977;SDS011;40873;47.522;19.106;2022-11-20T03:54:05;33.30;;;11.30;;
54977;SDS011;40873;47.522;19.106;2022-11-20T03:56:35;31.15;;;12.77;;
54977;SDS011;40873;47.522;19.106;2022-11-20T03:59:04;27.65;;;11.70;;
54977;SDS011;40873;47.522;19.106;2022-11-20T04:01:33;28.15;;;11.63;;
54977;SDS011;40873;47.522;19.106;2022-11-20T04:04:03;25.60;;;11.00;;
54977;SDS011;40873;47.522;19.106;2022-11-20T04:06:33;24.50;;;10.52;;
54977;SDS011;40873;47.522;19.106;2022-11-20T04:09:02;22.65;;;9.23;;
54977;SDS011;40873;47.522;19.106;2022-11-20T04:11:33;31.10;;;11.35;;
54977;SDS011;40873;47.522;19.106;2022-11-20T04:14:03;32.75;;;11.70;;
54977;SDS011;40873;47.522;19.106;2022-11-20T04:16:35;28.88;;;11.38;;
54977;SDS011;40873;47.522;19.106;2022-11-20T04:19:03;28.27;;;11.82;;
54977;SDS011;40873;47.522;19.106;2022-11-20T04:21:36;31.38;;;13.38;;
54977;SDS011;40873;47.522;19.106;2022-11-20T04:24:03;34.17;;;12.25;;
54977;SDS011;40873;47.522;19.106;2022-11-20T04:26:31;30.63;;;11.65;;
54977;SDS011;40873;47.522;19.106;2022-11-20T04:28:58;26.42;;;11.50;;
54977;SDS011;40873;47.522;19.106;2022-11-20T04:31:28;31.25;;;12.07;;
54977;SDS011;40873;47.522;19.106;2022-11-20T04:34:00;38.53;;;13.35;;
54977;SDS011;40873;47.522;19.106;2022-11-20T04:36:32;30.65;;;12.32;;
54977;SDS011;40873;47.522;19.106;2022-11-20T04:39:01;33.35;;;12.35;;
54977;SDS011;40873;47.522;19.106;2022-11-20T04:41:31;28.90;;;11.98;;
54977;SDS011;40873;47.522;19.106;2022-11-20T04:44:00;28.65;;;12.15;;
54977;SDS011;40873;47.522;19.106;2022-11-20T04:46:32;33.53;;;12.55;;
54977;SDS011;40873;47.522;19.106;2022-11-20T04:49:01;32.10;;;13.07;;
54977;SDS011;40873;47.522;19.106;2022-11-20T04:51:29;30.27;;;10.60;;
54977;SDS011;40873;47.522;19.106;2022-11-20T04:53:56;31.27;;;12.00;;
54977;SDS011;40873;47.522;19.106;2022-11-20T04:56:23;27.10;;;11.55;;
54977;SDS011;40873;47.522;19.106;2022-11-20T04:58:52;28.77;;;11.73;;
54977;SDS011;40873;47.522;19.106;2022-11-20T05:01:20;28.60;;;11.18;;
54977;SDS011;40873;47.522;19.106;2022-11-20T05:03:49;30.27;;;11.73;;
54977;SDS011;40873;47.522;19.106;2022-11-20T05:06:17;31.40;;;12.52;;
54977;SDS011;40873;47.522;19.106;2022-11-20T05:08:45;23.58;;;10.68;;
54977;SDS011;40873;47.522;19.106;2022-11-20T05:11:14;25.90;;;10.80;;
54977;SDS011;40873;47.522;19.106;2022-11-20T05:13:42;32.08;;;11.38;;
54977;SDS011;40873;47.522;19.106;2022-11-20T05:16:11;29.20;;;11.85;;
54977;SDS011;40873;47.522;19.106;2022-11-20T05:18:42;35.33;;;11.98;;
54977;SDS011;40873;47.522;19.106;2022-11-20T05:21:10;27.27;;;11.27;;
54977;SDS011;40873;47.522;19.106;2022-11-20T05:23:38;29.77;;;11.07;;
54977;SDS011;40873;47.522;19.106;2022-11-20T05:26:07;30.13;;;12.30;;
54977;SDS011;40873;47.522;19.106;2022-11-20T05:28:38;29.25;;;12.05;;
54977;SDS011;40873;47.522;19.106;2022-11-20T05:31:06;25.77;;;11.32;;
54977;SDS011;40873;47.522;19.106;2022-11-20T05:33:34;29.40;;;11.90;;
54977;SDS011;40873;47.522;19.106;2022-11-20T05:36:03;38.13;;;12.25;;
54977;SDS011;40873;47.522;19.106;2022-11-20T05:38:30;34.08;;;11.95;;
54977;SDS011;40873;47.522;19.106;2022-11-20T05:41:08;32.42;;;12.93;;
54977;SDS011;40873;47.522;19.106;2022-11-20T05:43:45;29.95;;;12.85;;
54977;SDS011;40873;47.522;19.106;2022-11-20T05:46:14;31.60;;;12.32;;
54977;SDS011;40873;47.522;19.106;2022-11-20T05:48:42;34.97;;;13.38;;
54977;SDS011;40873;47.522;19.106;2022-11-20T05:51:11;30.02;;;12.73;;
54977;SDS011;40873;47.522;19.106;2022-11-20T05:53:40;28.40;;;11.55;;
54977;SDS011;40873;47.522;19.106;2022-11-20T05:56:15;26.42;;;11.75;;
54977;SDS011;40873;47.522;19.106;2022-11-20T05:58:44;31.48;;;12.43;;
54977;SDS011;40873;47.522;19.106;2022-11-20T06:01:17;28.02;;;10.93;;
54977;SDS011;40873;47.522;19.106;2022-11-20T06:03:44;28.35;;;10.90;;
54977;SDS011;40873;47.522;19.106;2022-11-20T06:06:14;29.52;;;11.48;;
54977;SDS011;40873;47.522;19.106;2022-11-20T06:08:42;31.35;;;12.88;;
54977;SDS011;40873;47.522;19.106;2022-11-20T06:11:10;29.05;;;11.85;;
54977;SDS011;40873;47.522;19.106;2022-11-20T06:13:39;29.98;;;11.55;;
54977;SDS011;40873;47.522;19.106;2022-11-20T06:16:08;26.23;;;11.45;;
54977;SDS011;40873;47.522;19.106;2022-11-20T06:18:36;32.47;;;12.82;;
54977;SDS011;40873;47.522;19.106;2022-11-20T06:21:08;30.98;;;14.52;;
54977;SDS011;40873;47.522;19.106;2022-11-20T06:23:37;31.48;;;11.57;;
54977;SDS011;40873;47.522;19.106;2022-11-20T06:26:08;29.05;;;10.95;;
54977;SDS011;40873;47.522;19.106;2022-11-20T06:28:46;28.80;;;10.70;;
54977;SDS011;40873;47.522;19.106;2022-11-20T06:31:15;29.08;;;10.52;;
54977;SDS011;40873;47.522;19.106;2022-11-20T06:33:43;31.20;;;11.35;;
54977;SDS011;40873;47.522;19.106;2022-11-20T06:36:11;31.05;;;11.77;;
54977;SDS011;40873;47.522;19.106;2022-11-20T06:38:40;24.40;;;11.63;;
54977;SDS011;40873;47.522;19.106;2022-11-20T06:41:15;26.35;;;10.63;;
54977;SDS011;40873;47.522;19.106;2022-11-20T06:43:43;29.67;;;10.88;;
54977;SDS011;40873;47.522;19.106;2022-11-20T06:46:11;26.33;;;11.18;;
54977;SDS011;40873;47.522;19.106;2022-11-20T06:48:39;28.80;;;11.05;;
54977;SDS011;40873;47.522;19.106;2022-11-20T06:51:07;28.92;;;11.85;;
54977;SDS011;40873;47.522;19.106;2022-11-20T06:53:35;27.80;;;9.68;;
54977;SDS011;40873;47.522;19.106;2022-11-20T06:56:02;25.35;;;9.93;;
54977;SDS011;40873;47.522;19.106;2022-11-20T06:58:30;28.42;;;10.43;;
54977;SDS011;40873;47.522;19.106;2022-11-20T07:01:02;30.05;;;11.43;;
54977;SDS011;40873;47.522;19.106;2022-11-20T07:03:34;25.83;;;9.13;;
54977;SDS011;40873;47.522;19.106;2022-11-20T07:06:02;22.30;;;10.07;;
54977;SDS011;40873;47.522;19.106;2022-11-20T07:08:31;22.83;;;11.20;;
54977;SDS011;40873;47.522;19.106;2022-11-20T07:11:00;26.33;;;10.98;;
54977;SDS011;40873;47.522;19.106;2022-11-20T07:13:29;22.40;;;9.95;;
54977;SDS011;40873;47.522;19.106;2022-11-20T07:15:59;29.40;;;10.98;;
54977;SDS011;40873;47.522;19.106;2022-11-20T07:18:27;24.08;;;9.35;;
54977;SDS011;40873;47.522;19.106;2022-11-20T07:20:54;23.88;;;10.02;;
54977;SDS011;40873;47.522;19.106;2022-11-20T07:23:21;30.48;;;10.82;;
54977;SDS011;40873;47.522;19.106;2022-11-20T07:25:48;28.60;;;12.00;;
54977;SDS011;40873;47.522;19.106;2022-11-20T07:28:15;26.15;;;11.35;;
54977;SDS011;40873;47.522;19.106;2022-11-20T07:30:42;33.60;;;12.45;;
54977;SDS011;40873;47.522;19.106;2022-11-20T07:33:10;30.67;;;12.38;;
54977;SDS011;40873;47.522;19.106;2022-11-20T07:35:37;37.60;;;14.20;;
54977;SDS011;40873;47.522;19.106;2022-11-20T07:38:04;27.73;;;11.90;;
54977;SDS011;40873;47.522;19.106;2022-11-20T07:40:31;34.33;;;14.75;;
54977;SDS011;40873;47.522;19.106;2022-11-20T07:42:58;31.70;;;12.88;;
54977;SDS011;40873;47.522;19.106;2022-11-20T07:45:25;32.60;;;13.90;;
54977;SDS011;40873;47.522;19.106;2022-11-20T07:47:52;32.40;;;13.32;;
54977;SDS011;40873;47.522;19.106;2022-11-20T07:50:19;30.23;;;12.40;;
54977;SDS011;40873;47.522;19.106;2022-11-20T07:52:47;29.15;;;12.48;;
54977;SDS011;40873;47.522;19.106;2022-11-20T07:55:14;32.72;;;13.98;;
54977;SDS011;40873;47.522;19.106;2022-11-20T07:57:41;41.75;;;15.30;;
54977;SDS011;40873;47.522;19.106;2022-11-20T08:00:09;31.02;;;13.73;;
54977;SDS011;40873;47.522;19.106;2022-11-20T08:02:37;35.15;;;15.23;;
54977;SDS011;40873;47.522;19.106;2022-11-20T08:05:06;28.52;;;12.13;;
54977;SDS011;40873;47.522;19.106;2022-11-20T08:07:40;30.38;;;13.00;;
54977;SDS011;40873;47.522;19.106;2022-11-20T08:10:10;30.42;;;13.48;;
54977;SDS011;40873;47.522;19.106;2022-11-20T08:12:48;33.08;;;13.40;;
54977;SDS011;40873;47.522;19.106;2022-11-20T08:15:35;30.98;;;13.13;;
54977;SDS011;40873;47.522;19.106;2022-11-20T08:18:05;33.47;;;13.25;;
54977;SDS011;40873;47.522;19.106;2022-11-20T08:20:54;37.05;;;13.98;;
54977;SDS011;40873;47.522;19.106;2022-11-20T08:23:22;39.72;;;14.90;;
54977;SDS011;40873;47.522;19.106;2022-11-20T08:25:49;37.25;;;15.68;;
54977;SDS011;40873;47.522;19.106;2022-11-20T08:28:17;32.65;;;13.85;;
54977;SDS011;40873;47.522;19.106;2022-11-20T08:30:48;31.80;;;13.95;;
54977;SDS011;40873;47.522;19.106;2022-11-20T08:33:16;34.08;;;14.85;;
54977;SDS011;40873;47.522;19.106;2022-11-20T08:35:44;27.60;;;13.93;;
54977;SDS011;40873;47.522;19.106;2022-11-20T08:38:11;32.15;;;14.38;;
54977;SDS011;40873;47.522;19.106;2022-11-20T08:40:38;29.95;;;13.57;;
54977;SDS011;40873;47.522;19.106;2022-11-20T08:43:05;33.03;;;13.48;;
54977;SDS011;40873;47.522;19.106;2022-11-20T08:45:32;33.70;;;14.57;;
54977;SDS011;40873;47.522;19.106;2022-11-20T08:48:01;34.63;;;14.82;;
54977;SDS011;40873;47.522;19.106;2022-11-20T08:50:30;35.85;;;13.88;;
54977;SDS011;40873;47.522;19.106;2022-11-20T08:53:02;34.60;;;15.07;;
54977;SDS011;40873;47.522;19.106;2022-11-20T08:55:32;33.55;;;13.65;;
54977;SDS011;40873;47.522;19.106;2022-11-20T08:58:05;29.35;;;12.30;;
54977;SDS011;40873;47.522;19.106;2022-11-20T09:00:33;34.63;;;14.50;;
54977;SDS011;40873;47.522;19.106;2022-11-20T09:03:00;30.00;;;14.20;;
54977;SDS011;40873;47.522;19.106;2022-11-20T09:05:28;32.22;;;13.32;;
54977;SDS011;40873;47.522;19.106;2022-11-20T09:07:58;34.95;;;14.45;;
54977;SDS011;40873;47.522;19.106;2022-11-20T09:10:26;32.67;;;14.07;;
54977;SDS011;40873;47.522;19.106;2022-11-20T09:12:53;31.67;;;14.00;;
54977;SDS011;40873;47.522;19.106;2022-11-20T09:15:22;33.22;;;13.40;;
54977;SDS011;40873;47.522;19.106;2022-11-20T09:20:21;37.58;;;14.48;;
54977;SDS011;40873;47.522;19.106;2022-11-20T09:22:48;34.10;;;16.67;;
54977;SDS011;40873;47.522;19.106;2022-11-20T09:25:15;33.15;;;14.02;;
54977;SDS011;40873;47.522;19.106;2022-11-20T09:27:42;34.30;;;14.63;;
54977;SDS011;40873;47.522;19.106;2022-11-20T09:30:10;29.20;;;15.10;;
54977;SDS011;40873;47.522;19.106;2022-11-20T09:32:39;35.28;;;14.80;;
54977;SDS011;40873;47.522;19.106;2022-11-20T09:35:06;32.25;;;14.32;;
54977;SDS011;40873;47.522;19.106;2022-11-20T09:37:34;34.90;;;14.05;;
54977;SDS011;40873;47.522;19.106;2022-11-20T09:40:01;32.60;;;12.93;;
54977;SDS011;40873;47.522;19.106;2022-11-20T09:42:32;37.05;;;15.00;;
54977;SDS011;40873;47.522;19.106;2022-11-20T09:45:16;28.77;;;14.07;;
54977;SDS011;40873;47.522;19.106;2022-11-20T09:48:05;28.60;;;12.38;;
54977;SDS011;40873;47.522;19.106;2022-11-20T09:50:45;37.95;;;15.10;;
54977;SDS011;40873;47.522;19.106;2022-11-20T09:56:02;27.67;;;12.07;;
54977;SDS011;40873;47.522;19.106;2022-11-20T09:58:32;29.88;;;12.35;;
54977;SDS011;40873;47.522;19.106;2022-11-20T10:01:15;28.15;;;13.00;;
54977;SDS011;40873;47.522;19.106;2022-11-20T10:06:12;30.98;;;12.07;;
54977;SDS011;40873;47.522;19.106;2022-11-20T10:08:49;32.05;;;13.40;;
54977;SDS011;40873;47.522;19.106;2022-11-20T10:26:01;27.15;;;11.23;;
54977;SDS011;40873;47.522;19.106;2022-11-20T10:28:39;31.57;;;12.70;;
54977;SDS011;40873;47.522;19.106;2022-11-20T10:37:34;24.83;;;10.75;;
54977;SDS011;40873;47.522;19.106;2022-11-20T10:48:30;25.45;;;10.90;;
54977;SDS011;40873;47.522;19.106;2022-11-20T10:56:38;29.65;;;11.27;;
54977;SDS011;40873;47.522;19.106;2022-11-20T11:00:03;25.63;;;12.13;;
54977;SDS011;40873;47.522;19.106;2022-11-20T11:02:22;22.50;;;11.35;;
54977;SDS011;40873;47.522;19.106;2022-11-20T11:04:54;27.05;;;10.50;;
54977;SDS011;40873;47.522;19.106;2022-11-20T11:07:25;27.00;;;11.45;;
54977;SDS011;40873;47.522;19.106;2022-11-20T11:09:57;25.05;;;11.18;;
54977;SDS011;40873;47.522;19.106;2022-11-20T11:12:25;20.13;;;10.32;;
54977;SDS011;40873;47.522;19.106;2022-11-20T11:14:54;26.33;;;10.65;;
54977;SDS011;40873;47.522;19.106;2022-11-20T11:19:59;30.30;;;13.40;;
54977;SDS011;40873;47.522;19.106;2022-11-20T11:22:29;26.75;;;11.02;;
54977;SDS011;40873;47.522;19.106;2022-11-20T11:24:58;24.17;;;10.15;;
54977;SDS011;40873;47.522;19.106;2022-11-20T11:27:25;27.33;;;11.23;;
54977;SDS011;40873;47.522;19.106;2022-11-20T11:30:12;20.00;;;10.10;;
54977;SDS011;40873;47.522;19.106;2022-11-20T11:32:41;23.23;;;10.95;;
54977;SDS011;40873;47.522;19.106;2022-11-20T11:35:22;24.92;;;11.63;;
54977;SDS011;40873;47.522;19.106;2022-11-20T11:37:51;28.30;;;12.07;;
54977;SDS011;40873;47.522;19.106;2022-11-20T11:40:21;30.15;;;13.38;;
54977;SDS011;40873;47.522;19.106;2022-11-20T11:42:53;27.45;;;12.50;;
54977;SDS011;40873;47.522;19.106;2022-11-20T11:45:22;34.13;;;12.63;;
54977;SDS011;40873;47.522;19.106;2022-11-20T11:47:53;30.10;;;12.43;;
54977;SDS011;40873;47.522;19.106;2022-11-20T11:50:27;27.25;;;11.20;;
54977;SDS011;40873;47.522;19.106;2022-11-20T11:55:53;30.08;;;11.98;;
54977;SDS011;40873;47.522;19.106;2022-11-20T11:58:43;27.45;;;12.35;;
54977;SDS011;40873;47.522;19.106;2022-11-20T12:06:52;25.30;;;12.07;;
54977;SDS011;40873;47.522;19.106;2022-11-20T12:09:46;31.95;;;11.95;;
54977;SDS011;40873;47.522;19.106;2022-11-20T12:12:36;28.42;;;13.07;;
54977;SDS011;40873;47.522;19.106;2022-11-20T12:15:09;31.05;;;13.82;;
54977;SDS011;40873;47.522;19.106;2022-11-20T12:17:39;30.83;;;14.15;;
54977;SDS011;40873;47.522;19.106;2022-11-20T12:20:15;33.75;;;13.15;;
54977;SDS011;40873;47.522;19.106;2022-11-20T12:25:45;33.65;;;14.57;;
54977;SDS011;40873;47.522;19.106;2022-11-20T12:31:09;29.25;;;13.68;;
54977;SDS011;40873;47.522;19.106;2022-11-20T12:36:49;28.10;;;13.30;;
54977;SDS011;40873;47.522;19.106;2022-11-20T12:39:41;32.03;;;13.40;;
54977;SDS011;40873;47.522;19.106;2022-11-20T12:42:52;28.77;;;13.77;;
54977;SDS011;40873;47.522;19.106;2022-11-20T12:45:31;37.47;;;14.20;;
54977;SDS011;40873;47.522;19.106;2022-11-20T12:53:51;34.38;;;13.80;;
54977;SDS011;40873;47.522;19.106;2022-11-20T13:05:11;34.72;;;13.73;;
54977;SDS011;40873;47.522;19.106;2022-11-20T13:07:57;30.00;;;14.73;;
54977;SDS011;40873;47.522;19.106;2022-11-20T13:10:34;29.85;;;12.57;;
54977;SDS011;40873;47.522;19.106;2022-11-20T13:16:18;31.55;;;12.52;;
54977;SDS011;40873;47.522;19.106;2022-11-20T13:18:52;32.08;;;13.15;;
54977;SDS011;40873;47.522;19.106;2022-11-20T13:21:21;32.45;;;12.80;;
54977;SDS011;40873;47.522;19.106;2022-11-20T13:24:04;35.65;;;13.63;;
54977;SDS011;40873;47.522;19.106;2022-11-20T13:29:35;30.23;;;13.02;;
54977;SDS011;40873;47.522;19.106;2022-11-20T13:32:11;32.38;;;13.00;;
54977;SDS011;40873;47.522;19.106;2022-11-20T13:34:39;33.08;;;13.13;;
54977;SDS011;40873;47.522;19.106;2022-11-20T13:37:25;28.77;;;12.40;;
54977;SDS011;40873;47.522;19.106;2022-11-20T13:39:53;28.23;;;12.02;;
54977;SDS011;40873;47.522;19.106;2022-11-20T13:45:23;29.30;;;12.88;;
54977;SDS011;40873;47.522;19.106;2022-11-20T13:47:55;33.92;;;14.43;;
54977;SDS011;40873;47.522;19.106;2022-11-20T13:50:46;29.15;;;12.55;;
54977;SDS011;40873;47.522;19.106;2022-11-20T14:01:57;30.45;;;12.40;;
54977;SDS011;40873;47.522;19.106;2022-11-20T14:04:27;34.63;;;13.55;;
54977;SDS011;40873;47.522;19.106;2022-11-20T14:06:57;30.60;;;13.18;;
54977;SDS011;40873;47.522;19.106;2022-11-20T14:09:27;27.42;;;13.00;;
54977;SDS011;40873;47.522;19.106;2022-11-20T14:11:58;33.77;;;13.47;;
54977;SDS011;40873;47.522;19.106;2022-11-20T14:14:26;30.05;;;12.45;;
54977;SDS011;40873;47.522;19.106;2022-11-20T14:17:07;34.45;;;13.55;;
54977;SDS011;40873;47.522;19.106;2022-11-20T14:19:35;29.13;;;13.90;;
54977;SDS011;40873;47.522;19.106;2022-11-20T14:24:42;36.67;;;12.80;;
54977;SDS011;40873;47.522;19.106;2022-11-20T14:27:11;30.98;;;12.73;;
54977;SDS011;40873;47.522;19.106;2022-11-20T14:29:40;36.38;;;13.85;;
54977;SDS011;40873;47.522;19.106;2022-11-20T14:32:09;33.50;;;13.82;;
54977;SDS011;40873;47.522;19.106;2022-11-20T14:34:38;32.88;;;13.55;;
54977;SDS011;40873;47.522;19.106;2022-11-20T14:37:13;29.48;;;13.23;;
54977;SDS011;40873;47.522;19.106;2022-11-20T14:39:48;30.88;;;12.25;;
54977;SDS011;40873;47.522;19.106;2022-11-20T14:42:19;31.40;;;13.93;;
54977;SDS011;40873;47.522;19.106;2022-11-20T14:44:52;27.55;;;13.27;;
54977;SDS011;40873;47.522;19.106;2022-11-20T14:47:23;30.50;;;13.50;;
54977;SDS011;40873;47.522;19.106;2022-11-20T14:49:52;38.38;;;13.90;;
54977;SDS011;40873;47.522;19.106;2022-11-20T14:52:22;33.95;;;13.82;;
54977;SDS011;40873;47.522;19.106;2022-11-20T14:54:54;30.75;;;14.23;;
54977;SDS011;40873;47.522;19.106;2022-11-20T14:57:29;30.65;;;13.93;;
54977;SDS011;40873;47.522;19.106;2022-11-20T15:00:17;34.45;;;15.25;;
54977;SDS011;40873;47.522;19.106;2022-11-20T15:02:47;32.22;;;12.77;;
54977;SDS011;40873;47.522;19.106;2022-11-20T15:05:16;31.15;;;14.20;;
54977;SDS011;40873;47.522;19.106;2022-11-20T15:07:46;42.03;;;14.32;;
54977;SDS011;40873;47.522;19.106;2022-11-20T15:12:52;32.85;;;14.45;;
54977;SDS011;40873;47.522;19.106;2022-11-20T15:15:29;35.92;;;13.80;;
54977;SDS011;40873;47.522;19.106;2022-11-20T15:18:13;32.00;;;13.25;;
54977;SDS011;40873;47.522;19.106;2022-11-20T15:20:42;32.80;;;14.13;;
54977;SDS011;40873;47.522;19.106;2022-11-20T15:23:14;32.35;;;14.45;;
54977;SDS011;40873;47.522;19.106;2022-11-20T15:25:45;33.90;;;15.50;;
54977;SDS011;40873;47.522;19.106;2022-11-20T15:28:27;36.30;;;14.80;;
54977;SDS011;40873;47.522;19.106;2022-11-20T15:30:58;34.20;;;15.43;;
54977;SDS011;40873;47.522;19.106;2022-11-20T15:33:26;32.25;;;14.50;;
54977;SDS011;40873;47.522;19.106;2022-11-20T15:35:53;35.67;;;15.52;;
54977;SDS011;40873;47.522;19.106;2022-11-20T15:38:20;38.22;;;15.50;;
54977;SDS011;40873;47.522;19.106;2022-11-20T15:40:47;43.47;;;16.33;;
54977;SDS011;40873;47.522;19.106;2022-11-20T15:43:14;37.42;;;16.40;;
54977;SDS011;40873;47.522;19.106;2022-11-20T15:48:09;33.88;;;15.07;;
54977;SDS011;40873;47.522;19.106;2022-11-20T15:51:06;37.95;;;15.93;;
54977;SDS011;40873;47.522;19.106;2022-11-20T15:53:33;39.65;;;15.05;;
54977;SDS011;40873;47.522;19.106;2022-11-20T15:56:00;41.47;;;16.98;;
54977;SDS011;40873;47.522;19.106;2022-11-20T15:58:28;38.63;;;15.10;;
54977;SDS011;40873;47.522;19.106;2022-11-20T16:00:55;37.80;;;16.50;;
54977;SDS011;40873;47.522;19.106;2022-11-20T16:03:22;39.00;;;16.15;;
54977;SDS011;40873;47.522;19.106;2022-11-20T16:05:49;42.08;;;16.33;;
54977;SDS011;40873;47.522;19.106;2022-11-20T16:08:16;37.80;;;15.45;;
54977;SDS011;40873;47.522;19.106;2022-11-20T16:10:44;39.63;;;15.40;;
54977;SDS011;40873;47.522;19.106;2022-11-20T16:13:14;38.75;;;15.90;;
54977;SDS011;40873;47.522;19.106;2022-11-20T16:16:11;43.08;;;16.83;;
54977;SDS011;40873;47.522;19.106;2022-11-20T16:18:49;38.58;;;16.80;;
54977;SDS011;40873;47.522;19.106;2022-11-20T16:21:16;41.45;;;17.25;;
54977;SDS011;40873;47.522;19.106;2022-11-20T16:23:43;44.13;;;16.13;;